createdAt,value
2022-09-14T00:04:14.795Z,97072.28
2022-09-14T00:09:20.475Z,97081.75
2022-09-14T00:14:23.145Z,97093.75
2022-09-14T00:19:26.995Z,97072.69
2022-09-14T00:24:31.050Z,97054.47
2022-09-14T00:29:34.150Z,97042.22
2022-09-14T00:34:36.686Z,97027.81
2022-09-14T00:39:39.120Z,97027.59
2022-09-14T00:44:41.691Z,97023.47
2022-09-14T00:49:45.383Z,97023.75
2022-09-14T00:54:49.539Z,97010.97
2022-09-14T00:59:53.548Z,96999.22
2022-09-14T01:04:56.741Z,96975.41
2022-09-14T01:10:23.365Z,96981.91
2022-09-14T01:15:48.083Z,96950.59
2022-09-14T01:20:57.703Z,96968.28
2022-09-14T01:26:27.131Z,97097.56
2022-09-14T01:31:44.871Z,97075.56
2022-09-14T01:36:52.793Z,97066.84
2022-09-14T01:41:56.642Z,97065.44
2022-09-14T01:47:06.412Z,97062.88
2022-09-14T01:52:14.653Z,97059.13
2022-09-14T01:57:34.159Z,97064.69
2022-09-14T02:02:41.865Z,97074.44
2022-09-14T02:07:45.210Z,97073.19
2022-09-14T02:12:48.607Z,97092.19
2022-09-14T02:17:51.151Z,97075.16
2022-09-14T02:22:53.751Z,97065.63
2022-09-14T02:27:56.171Z,97063.09
2022-09-14T02:32:58.761Z,97066.63
2022-09-14T02:38:05.238Z,97076.66
2022-09-14T02:43:44.085Z,97072.25
2022-09-14T02:48:58.724Z,97078.22
2022-09-14T02:54:22.370Z,97081.94
2022-09-14T02:59:24.843Z,97066.84
2022-09-14T03:04:28.356Z,97052.06
2022-09-14T03:09:30.774Z,97044.81
2022-09-14T03:14:33.184Z,97041.50
2022-09-14T03:19:35.871Z,97045.44
2022-09-14T03:24:38.388Z,97039.22
2022-09-14T03:29:41.040Z,97016.00
2022-09-14T03:34:43.469Z,97015.69
2022-09-14T03:39:45.923Z,97013.53
2022-09-14T03:44:48.386Z,96992.94
2022-09-14T03:49:50.988Z,96992.97
2022-09-14T03:54:53.487Z,96987.41
2022-09-14T03:59:55.989Z,96978.50
2022-09-14T04:04:58.472Z,96983.22
2022-09-14T04:10:00.913Z,96986.88
2022-09-14T04:15:06.617Z,96969.59
2022-09-14T04:20:09.588Z,96952.31
2022-09-14T04:25:12.676Z,96966.59
2022-09-14T04:30:15.404Z,96970.72
2022-09-14T04:35:17.859Z,96978.25
2022-09-14T04:40:22.162Z,96953.00
2022-09-14T04:45:24.652Z,96962.00
2022-09-14T04:50:27.100Z,96967.53
2022-09-14T04:55:38.067Z,96965.53
2022-09-14T05:00:41.255Z,96964.78
2022-09-14T05:05:44.910Z,96959.53
2022-09-14T05:10:47.430Z,96966.03
2022-09-14T05:15:50.554Z,96963.00
2022-09-14T05:20:53.076Z,96966.72
2022-09-14T05:25:55.471Z,96975.69
2022-09-14T05:30:57.942Z,96997.06
2022-09-14T05:36:02.101Z,97005.00
2022-09-14T05:41:06.014Z,97012.25
2022-09-14T05:46:14.232Z,97009.44
2022-09-14T05:51:18.836Z,97006.56
2022-09-14T05:56:23.201Z,96995.69
2022-09-14T06:01:31.097Z,96985.78
2022-09-14T06:06:34.347Z,96978.88
2022-09-14T06:11:36.843Z,97004.75
2022-09-14T06:16:39.255Z,96999.22
2022-09-14T06:21:42.384Z,96988.94
2022-09-14T06:26:44.886Z,96996.06
2022-09-14T06:31:47.337Z,97009.41
2022-09-14T06:36:49.817Z,97002.09
2022-09-14T06:41:52.381Z,97001.53
2022-09-14T06:46:55.093Z,96995.19
2022-09-14T06:51:57.649Z,96985.13
2022-09-14T06:57:00.254Z,96974.06
2022-09-14T07:02:02.748Z,96972.44
2022-09-14T07:07:06.007Z,96974.88
2022-09-14T07:17:26.049Z,96991.22
2022-09-14T07:22:28.647Z,97001.03
2022-09-14T07:27:31.085Z,97008.28
2022-09-14T07:32:33.668Z,96992.34
2022-09-14T07:37:36.096Z,96981.78
2022-09-14T07:42:38.921Z,96989.09
2022-09-14T07:47:41.428Z,96994.06
2022-09-14T07:52:43.914Z,96993.53
2022-09-14T07:57:56.010Z,97002.41
2022-09-14T08:03:00.170Z,97021.41
2022-09-14T08:08:02.979Z,97022.09
2022-09-14T08:13:05.432Z,97027.03
2022-09-14T08:18:07.825Z,97014.59
2022-09-14T08:23:11.316Z,97027.84
2022-09-14T08:28:13.953Z,97043.25
2022-09-14T08:33:16.363Z,97049.75
2022-09-14T08:38:18.752Z,97057.50
2022-09-14T08:43:24.655Z,97075.09
2022-09-14T08:48:37.149Z,97087.88
2022-09-14T08:53:42.810Z,97105.03
2022-09-14T08:59:23.336Z,97078.81
2022-09-14T09:04:45.959Z,97056.28
2022-09-14T09:09:51.784Z,97066.72
2022-09-14T09:14:57.501Z,97055.63
2022-09-14T09:20:19.015Z,97067.47
2022-09-14T09:25:25.080Z,97075.16
2022-09-14T09:30:29.985Z,97075.34
2022-09-14T09:35:33.539Z,97066.16
2022-09-14T09:40:45.077Z,97071.03
2022-09-14T09:45:52.011Z,97046.44
2022-09-14T09:51:02.996Z,97042.56
2022-09-14T09:56:06.100Z,97022.22
2022-09-14T10:01:29.386Z,97017.53
2022-09-14T10:06:32.513Z,97016.13
2022-09-14T10:11:37.964Z,97002.03
2022-09-14T10:16:42.670Z,96999.94
2022-09-14T10:22:35.818Z,96997.97
2022-09-14T10:27:57.161Z,96997.28
2022-09-14T10:33:05.277Z,96973.06
2022-09-14T10:38:37.074Z,96963.63
2022-09-14T10:44:22.752Z,96955.47
2022-09-14T10:49:41.011Z,96953.59
2022-09-14T10:55:03.676Z,96939.31
2022-09-14T11:00:16.285Z,96922.56
2022-09-14T11:05:41.647Z,96910.53
2022-09-14T11:11:22.987Z,96909.81
2022-09-14T11:16:34.303Z,96905.59
2022-09-14T11:21:36.720Z,96908.19
2022-09-14T11:26:47.839Z,96899.38
2022-09-14T11:44:11.263Z,96877.72
2022-09-14T11:49:14.313Z,96875.53
2022-09-14T12:06:44.056Z,96895.75
2022-09-14T12:11:51.159Z,96898.59
2022-09-14T12:17:40.507Z,96902.84
2022-09-14T12:22:48.171Z,96908.84
2022-09-14T12:27:52.688Z,96911.03
2022-09-14T12:32:55.227Z,96924.56
2022-09-14T12:37:58.192Z,96929.91
2022-09-14T12:43:28.179Z,96962.00
2022-09-14T12:48:49.094Z,96986.16
2022-09-14T12:54:14.747Z,96978.78
2022-09-14T12:59:29.313Z,96991.53
2022-09-14T13:04:39.471Z,96990.28
2022-09-14T13:09:49.040Z,96985.06
2022-09-14T13:14:58.265Z,96964.59
2022-09-14T13:20:05.357Z,96998.16
2022-09-14T13:25:26.957Z,96991.34
2022-09-14T13:30:31.350Z,96971.72
2022-09-14T13:35:45.824Z,96982.47
2022-09-14T13:40:51.008Z,96981.66
2022-09-14T13:45:53.752Z,96977.03
2022-09-14T13:50:56.518Z,96989.22
2022-09-14T13:55:59.042Z,96975.06
2022-09-14T14:01:04.577Z,96971.63
2022-09-14T14:06:27.520Z,96949.53
2022-09-14T14:11:55.208Z,96948.72
2022-09-14T14:17:20.214Z,96932.22
2022-09-14T14:22:34.191Z,96936.75
2022-09-14T14:27:36.671Z,96949.09
2022-09-14T14:32:39.199Z,96946.00
2022-09-14T14:37:41.763Z,96976.13
2022-09-14T14:42:45.676Z,96994.44
2022-09-14T14:47:50.719Z,96999.75
2022-09-14T14:52:53.641Z,97011.47
2022-09-14T14:58:01.110Z,96991.66
2022-09-14T15:03:03.821Z,96981.19
2022-09-14T15:08:06.348Z,96978.75
2022-09-14T15:13:11.992Z,96955.78
2022-09-14T15:18:14.580Z,96950.28
2022-09-14T15:23:17.062Z,96936.31
2022-09-14T15:28:19.945Z,96909.75
2022-09-14T15:33:22.374Z,96924.56
2022-09-14T15:38:25.357Z,96897.28
2022-09-14T15:43:27.835Z,96866.44
2022-09-14T15:48:30.373Z,96855.84
2022-09-14T15:53:32.813Z,96868.22
2022-09-14T15:58:35.252Z,96860.63
2022-09-14T16:03:38.456Z,96854.91
2022-09-14T16:08:41.602Z,96846.53
2022-09-14T16:13:44.271Z,96833.50
2022-09-14T16:18:47.860Z,96830.69
2022-09-14T16:23:55.912Z,96813.66
2022-09-14T16:28:59.280Z,96833.16
2022-09-14T16:34:07.942Z,96861.47
2022-09-14T16:39:13.535Z,96860.44
2022-09-14T16:44:20.125Z,96872.47
2022-09-14T16:49:27.240Z,96878.91
2022-09-14T16:54:31.849Z,96873.34
2022-09-14T16:59:34.346Z,96880.09
2022-09-14T17:04:36.938Z,96882.69
2022-09-14T17:09:42.480Z,96875.44
2022-09-14T17:14:45.039Z,96877.44
2022-09-14T17:19:47.675Z,96893.78
2022-09-14T17:24:50.186Z,96885.69
2022-09-14T17:29:53.174Z,96884.63
2022-09-14T17:34:55.644Z,96891.59
2022-09-14T17:39:58.079Z,96889.84
2022-09-14T17:45:00.513Z,96904.22
2022-09-14T17:50:03.985Z,96895.69
2022-09-14T17:55:07.630Z,96900.19
2022-09-14T18:00:10.640Z,96903.19
2022-09-14T18:05:13.164Z,96904.88
2022-09-14T18:10:18.778Z,96906.88
2022-09-14T18:15:21.209Z,96910.88
2022-09-14T18:20:23.635Z,96915.88
2022-09-14T18:25:26.088Z,96918.34
2022-09-14T18:30:28.639Z,96927.66
2022-09-14T18:35:31.147Z,96926.94
2022-09-14T18:40:42.793Z,96928.44
2022-09-14T18:45:47.179Z,96924.16
2022-09-14T18:50:49.753Z,96916.19
2022-09-14T18:55:52.462Z,96915.72
2022-09-14T19:00:55.261Z,96914.53
2022-09-14T19:05:58.650Z,96906.75
2022-09-14T19:11:21.877Z,96910.78
2022-09-14T19:16:24.631Z,96907.03
2022-09-14T19:21:29.647Z,96914.78
2022-09-14T19:26:35.347Z,96908.22
2022-09-14T19:31:38.665Z,96914.78
2022-09-14T19:36:41.334Z,96908.28
2022-09-14T19:41:44.111Z,96919.13
2022-09-14T19:46:46.769Z,96930.63
2022-09-14T19:51:50.090Z,96934.63
2022-09-14T19:56:52.636Z,96939.94
2022-09-14T20:01:55.396Z,96942.00
2022-09-14T20:06:58.181Z,96950.53
2022-09-14T20:12:00.806Z,96955.81
2022-09-14T20:17:03.791Z,96965.66
2022-09-14T20:22:06.471Z,96967.41
2022-09-14T20:27:09.161Z,96968.16
2022-09-14T20:32:11.737Z,96955.63
2022-09-14T20:37:14.583Z,96957.38
2022-09-14T20:42:17.108Z,96960.84
2022-09-14T20:47:19.773Z,96968.56
2022-09-14T20:52:22.359Z,96969.59
2022-09-14T20:57:24.902Z,96972.13
2022-09-14T21:02:27.554Z,96978.38
2022-09-14T21:07:29.995Z,96965.81
2022-09-14T21:12:32.493Z,96948.81
2022-09-14T21:17:34.978Z,96956.91
2022-09-14T21:22:37.453Z,96947.13
2022-09-14T21:27:39.943Z,96950.47
2022-09-14T21:32:47.766Z,96940.31
2022-09-14T21:37:51.682Z,96954.41
2022-09-14T21:42:54.729Z,96944.56
2022-09-14T21:47:57.154Z,96940.31
2022-09-14T21:52:59.703Z,96942.47
2022-09-14T21:58:02.172Z,96942.53
2022-09-14T22:03:04.681Z,96934.84
2022-09-14T22:08:07.121Z,96931.66
2022-09-14T22:13:09.524Z,96927.88
2022-09-14T22:18:12.078Z,96928.19
2022-09-14T22:23:14.541Z,96928.81
2022-09-14T22:28:18.637Z,96940.44
2022-09-14T22:33:22.452Z,96950.81
2022-09-14T22:38:27.298Z,96959.41
2022-09-14T22:43:30.735Z,96975.50
2022-09-14T22:48:33.822Z,96991.44
2022-09-14T22:53:36.704Z,96987.66
2022-09-14T22:58:39.362Z,96984.66
2022-09-14T23:03:42.438Z,96988.00
2022-09-14T23:08:47.228Z,96996.25
2022-09-14T23:13:50.459Z,96996.50
2022-09-14T23:18:55.687Z,96999.16
2022-09-14T23:24:01.260Z,97004.41
2022-09-14T23:29:07.154Z,97005.56
2022-09-14T23:34:09.818Z,97021.69
2022-09-14T23:39:12.373Z,97019.50
2022-09-14T23:44:14.955Z,97018.41
2022-09-14T23:49:17.482Z,97013.63
2022-09-14T23:54:20.224Z,97004.44
2022-09-14T23:59:22.723Z,96996.44
